sensor_id;sensor_type;location;lat;lon;timestamp;P1;durP1;ratioP1;P2;durP2;ratioP2
75620;SDS011;64574;48.506;-2.750;2023-09-12T00:01:03;9.20;;;4.80;;
75620;SDS011;64574;48.506;-2.750;2023-09-12T00:03:30;8.32;;;5.03;;
75620;SDS011;64574;48.506;-2.750;2023-09-12T00:05:57;6.22;;;4.63;;
75620;SDS011;64574;48.506;-2.750;2023-09-12T00:08:23;7.32;;;4.60;;
75620;SDS011;64574;48.506;-2.750;2023-09-12T00:13:28;7.00;;;4.35;;
75620;SDS011;64574;48.506;-2.750;2023-09-12T00:15:54;7.75;;;4.03;;
75620;SDS011;64574;48.506;-2.750;2023-09-12T00:20:45;7.22;;;3.72;;
75620;SDS011;64574;48.506;-2.750;2023-09-12T00:23:11;7.55;;;4.38;;
75620;SDS011;64574;48.506;-2.750;2023-09-12T00:25:36;9.73;;;6.97;;
75620;SDS011;64574;48.506;-2.750;2023-09-12T00:28:02;10.43;;;7.43;;
75620;SDS011;64574;48.506;-2.750;2023-09-12T00:30:28;9.85;;;6.93;;
75620;SDS011;64574;48.506;-2.750;2023-09-12T00:32:54;8.93;;;5.88;;
75620;SDS011;64574;48.506;-2.750;2023-09-12T00:35:19;8.75;;;5.70;;
75620;SDS011;64574;48.506;-2.750;2023-09-12T00:37:45;9.05;;;5.47;;
75620;SDS011;64574;48.506;-2.750;2023-09-12T00:40:10;10.02;;;6.25;;
75620;SDS011;64574;48.506;-2.750;2023-09-12T00:42:36;8.10;;;4.78;;
75620;SDS011;64574;48.506;-2.750;2023-09-12T00:45:02;9.07;;;5.35;;
75620;SDS011;64574;48.506;-2.750;2023-09-12T00:47:28;10.32;;;5.47;;
75620;SDS011;64574;48.506;-2.750;2023-09-12T00:49:55;9.27;;;6.07;;
75620;SDS011;64574;48.506;-2.750;2023-09-12T01:09:23;10.52;;;6.03;;
75620;SDS011;64574;48.506;-2.750;2023-09-12T01:11:50;10.40;;;7.00;;
75620;SDS011;64574;48.506;-2.750;2023-09-12T01:14:15;11.52;;;6.18;;
75620;SDS011;64574;48.506;-2.750;2023-09-12T01:16:41;12.20;;;7.00;;
75620;SDS011;64574;48.506;-2.750;2023-09-12T01:19:06;9.82;;;6.05;;
75620;SDS011;64574;48.506;-2.750;2023-09-12T01:27:20;13.57;;;9.70;;
75620;SDS011;64574;48.506;-2.750;2023-09-12T01:29:51;14.30;;;9.93;;
75620;SDS011;64574;48.506;-2.750;2023-09-12T01:32:21;13.32;;;9.43;;
75620;SDS011;64574;48.506;-2.750;2023-09-12T01:34:46;14.45;;;10.35;;
75620;SDS011;64574;48.506;-2.750;2023-09-12T01:37:12;14.30;;;10.20;;
75620;SDS011;64574;48.506;-2.750;2023-09-12T01:39:38;12.35;;;9.25;;
75620;SDS011;64574;48.506;-2.750;2023-09-12T01:42:04;12.43;;;9.03;;
75620;SDS011;64574;48.506;-2.750;2023-09-12T01:44:30;13.05;;;8.73;;
75620;SDS011;64574;48.506;-2.750;2023-09-12T01:47:00;12.57;;;9.43;;
75620;SDS011;64574;48.506;-2.750;2023-09-12T01:49:29;13.98;;;9.48;;
75620;SDS011;64574;48.506;-2.750;2023-09-12T01:51:57;12.23;;;8.88;;
75620;SDS011;64574;48.506;-2.750;2023-09-12T01:54:24;12.70;;;8.82;;
75620;SDS011;64574;48.506;-2.750;2023-09-12T01:56:52;12.95;;;9.30;;
75620;SDS011;64574;48.506;-2.750;2023-09-12T01:59:19;15.63;;;10.00;;
75620;SDS011;64574;48.506;-2.750;2023-09-12T02:01:45;14.27;;;9.30;;
75620;SDS011;64574;48.506;-2.750;2023-09-12T02:04:10;13.98;;;9.75;;
75620;SDS011;64574;48.506;-2.750;2023-09-12T02:06:36;14.82;;;9.60;;
75620;SDS011;64574;48.506;-2.750;2023-09-12T02:09:01;13.77;;;9.47;;
75620;SDS011;64574;48.506;-2.750;2023-09-12T02:11:27;13.73;;;9.07;;
75620;SDS011;64574;48.506;-2.750;2023-09-12T02:13:53;11.85;;;8.80;;
75620;SDS011;64574;48.506;-2.750;2023-09-12T02:16:19;11.75;;;8.38;;
75620;SDS011;64574;48.506;-2.750;2023-09-12T02:18:44;11.70;;;8.00;;
75620;SDS011;64574;48.506;-2.750;2023-09-12T02:21:10;8.77;;;6.60;;
75620;SDS011;64574;48.506;-2.750;2023-09-12T02:23:36;8.05;;;6.22;;
75620;SDS011;64574;48.506;-2.750;2023-09-12T02:26:01;8.45;;;6.13;;
75620;SDS011;64574;48.506;-2.750;2023-09-12T02:28:27;8.80;;;6.30;;
75620;SDS011;64574;48.506;-2.750;2023-09-12T02:30:53;8.43;;;5.77;;
75620;SDS011;64574;48.506;-2.750;2023-09-12T02:33:18;8.13;;;5.50;;
75620;SDS011;64574;48.506;-2.750;2023-09-12T02:35:44;9.07;;;5.53;;
75620;SDS011;64574;48.506;-2.750;2023-09-12T02:38:10;8.93;;;5.50;;
75620;SDS011;64574;48.506;-2.750;2023-09-12T02:40:35;8.30;;;5.45;;
75620;SDS011;64574;48.506;-2.750;2023-09-12T02:43:01;7.43;;;5.43;;
75620;SDS011;64574;48.506;-2.750;2023-09-12T02:45:27;8.67;;;5.23;;
75620;SDS011;64574;48.506;-2.750;2023-09-12T02:47:52;8.40;;;5.37;;
75620;SDS011;64574;48.506;-2.750;2023-09-12T02:50:18;8.85;;;5.85;;
75620;SDS011;64574;48.506;-2.750;2023-09-12T02:52:44;7.90;;;5.50;;
75620;SDS011;64574;48.506;-2.750;2023-09-12T02:55:09;7.43;;;5.20;;
75620;SDS011;64574;48.506;-2.750;2023-09-12T02:57:35;8.35;;;5.72;;
75620;SDS011;64574;48.506;-2.750;2023-09-12T03:00:01;7.00;;;5.80;;
75620;SDS011;64574;48.506;-2.750;2023-09-12T03:02:27;8.95;;;5.55;;
75620;SDS011;64574;48.506;-2.750;2023-09-12T03:04:54;8.95;;;5.90;;
75620;SDS011;64574;48.506;-2.750;2023-09-12T03:07:19;8.27;;;5.72;;
75620;SDS011;64574;48.506;-2.750;2023-09-12T03:09:47;8.60;;;5.47;;
75620;SDS011;64574;48.506;-2.750;2023-09-12T03:12:14;8.63;;;5.82;;
75620;SDS011;64574;48.506;-2.750;2023-09-12T03:14:40;8.27;;;5.90;;
75620;SDS011;64574;48.506;-2.750;2023-09-12T03:17:06;9.33;;;5.40;;
75620;SDS011;64574;48.506;-2.750;2023-09-12T03:19:31;9.13;;;5.63;;
75620;SDS011;64574;48.506;-2.750;2023-09-12T03:21:57;8.25;;;5.25;;
75620;SDS011;64574;48.506;-2.750;2023-09-12T03:24:23;8.57;;;5.33;;
75620;SDS011;64574;48.506;-2.750;2023-09-12T03:26:50;8.52;;;5.70;;
75620;SDS011;64574;48.506;-2.750;2023-09-12T03:29:16;8.40;;;5.40;;
75620;SDS011;64574;48.506;-2.750;2023-09-12T03:31:41;8.10;;;5.70;;
75620;SDS011;64574;48.506;-2.750;2023-09-12T03:34:07;9.02;;;5.63;;
75620;SDS011;64574;48.506;-2.750;2023-09-12T03:36:33;9.23;;;5.50;;
75620;SDS011;64574;48.506;-2.750;2023-09-12T03:38:58;7.93;;;5.17;;
75620;SDS011;64574;48.506;-2.750;2023-09-12T03:41:24;6.97;;;5.00;;
75620;SDS011;64574;48.506;-2.750;2023-09-12T03:43:54;8.43;;;5.28;;
75620;SDS011;64574;48.506;-2.750;2023-09-12T03:46:20;8.75;;;5.40;;
75620;SDS011;64574;48.506;-2.750;2023-09-12T03:48:46;8.45;;;5.28;;
75620;SDS011;64574;48.506;-2.750;2023-09-12T03:51:12;8.90;;;5.28;;
75620;SDS011;64574;48.506;-2.750;2023-09-12T03:53:38;9.15;;;5.40;;
75620;SDS011;64574;48.506;-2.750;2023-09-12T03:56:04;8.80;;;5.80;;
75620;SDS011;64574;48.506;-2.750;2023-09-12T03:58:29;8.37;;;5.40;;
75620;SDS011;64574;48.506;-2.750;2023-09-12T04:00:55;8.93;;;5.07;;
75620;SDS011;64574;48.506;-2.750;2023-09-12T04:03:21;8.27;;;5.40;;
75620;SDS011;64574;48.506;-2.750;2023-09-12T04:05:47;8.60;;;5.35;;
75620;SDS011;64574;48.506;-2.750;2023-09-12T04:08:13;7.43;;;5.00;;
75620;SDS011;64574;48.506;-2.750;2023-09-12T04:10:38;8.52;;;5.60;;
75620;SDS011;64574;48.506;-2.750;2023-09-12T04:13:04;7.90;;;5.10;;
75620;SDS011;64574;48.506;-2.750;2023-09-12T04:15:30;7.50;;;4.87;;
75620;SDS011;64574;48.506;-2.750;2023-09-12T04:17:55;8.43;;;5.10;;
75620;SDS011;64574;48.506;-2.750;2023-09-12T04:20:21;10.43;;;4.97;;
75620;SDS011;64574;48.506;-2.750;2023-09-12T04:22:46;8.00;;;4.90;;
75620;SDS011;64574;48.506;-2.750;2023-09-12T04:25:12;8.00;;;5.15;;
75620;SDS011;64574;48.506;-2.750;2023-09-12T04:27:38;8.07;;;4.90;;
75620;SDS011;64574;48.506;-2.750;2023-09-12T04:30:04;7.60;;;5.00;;
75620;SDS011;64574;48.506;-2.750;2023-09-12T04:32:30;7.70;;;4.95;;
75620;SDS011;64574;48.506;-2.750;2023-09-12T04:34:55;6.93;;;4.73;;
75620;SDS011;64574;48.506;-2.750;2023-09-12T04:37:21;8.60;;;4.95;;
75620;SDS011;64574;48.506;-2.750;2023-09-12T04:39:47;8.77;;;5.20;;
75620;SDS011;64574;48.506;-2.750;2023-09-12T04:42:13;7.88;;;5.30;;
75620;SDS011;64574;48.506;-2.750;2023-09-12T04:44:39;8.88;;;5.00;;
75620;SDS011;64574;48.506;-2.750;2023-09-12T04:47:06;9.18;;;5.13;;
75620;SDS011;64574;48.506;-2.750;2023-09-12T04:49:33;10.32;;;4.80;;
75620;SDS011;64574;48.506;-2.750;2023-09-12T04:51:58;14.15;;;7.93;;
75620;SDS011;64574;48.506;-2.750;2023-09-12T04:54:24;7.03;;;4.80;;
75620;SDS011;64574;48.506;-2.750;2023-09-12T04:56:50;8.00;;;4.95;;
75620;SDS011;64574;48.506;-2.750;2023-09-12T04:59:16;6.80;;;4.40;;
75620;SDS011;64574;48.506;-2.750;2023-09-12T05:01:42;9.60;;;4.93;;
75620;SDS011;64574;48.506;-2.750;2023-09-12T05:04:08;8.93;;;5.05;;
75620;SDS011;64574;48.506;-2.750;2023-09-12T05:06:34;7.80;;;4.70;;
75620;SDS011;64574;48.506;-2.750;2023-09-12T05:09:00;7.72;;;5.00;;
75620;SDS011;64574;48.506;-2.750;2023-09-12T05:11:26;8.77;;;5.68;;
75620;SDS011;64574;48.506;-2.750;2023-09-12T05:13:51;10.77;;;6.10;;
75620;SDS011;64574;48.506;-2.750;2023-09-12T05:16:17;10.82;;;5.90;;
75620;SDS011;64574;48.506;-2.750;2023-09-12T05:18:43;11.20;;;6.88;;
75620;SDS011;64574;48.506;-2.750;2023-09-12T05:21:08;15.53;;;7.30;;
75620;SDS011;64574;48.506;-2.750;2023-09-12T05:23:34;12.43;;;7.63;;
75620;SDS011;64574;48.506;-2.750;2023-09-12T05:25:59;12.57;;;7.72;;
75620;SDS011;64574;48.506;-2.750;2023-09-12T05:28:25;14.57;;;7.57;;
75620;SDS011;64574;48.506;-2.750;2023-09-12T05:30:51;13.77;;;8.00;;
75620;SDS011;64574;48.506;-2.750;2023-09-12T05:33:17;11.50;;;7.40;;
75620;SDS011;64574;48.506;-2.750;2023-09-12T05:35:43;16.30;;;8.20;;
75620;SDS011;64574;48.506;-2.750;2023-09-12T05:38:11;13.35;;;7.97;;
75620;SDS011;64574;48.506;-2.750;2023-09-12T05:40:37;12.23;;;7.32;;
75620;SDS011;64574;48.506;-2.750;2023-09-12T05:43:02;13.77;;;7.83;;
75620;SDS011;64574;48.506;-2.750;2023-09-12T05:45:28;13.17;;;7.93;;
75620;SDS011;64574;48.506;-2.750;2023-09-12T05:47:57;12.63;;;7.50;;
75620;SDS011;64574;48.506;-2.750;2023-09-12T05:50:28;12.75;;;7.10;;
75620;SDS011;64574;48.506;-2.750;2023-09-12T05:52:53;11.13;;;6.97;;
75620;SDS011;64574;48.506;-2.750;2023-09-12T05:55:19;11.93;;;6.37;;
75620;SDS011;64574;48.506;-2.750;2023-09-12T05:57:45;13.20;;;7.43;;
75620;SDS011;64574;48.506;-2.750;2023-09-12T06:00:12;12.88;;;6.93;;
75620;SDS011;64574;48.506;-2.750;2023-09-12T06:02:40;11.50;;;7.07;;
75620;SDS011;64574;48.506;-2.750;2023-09-12T06:05:07;12.57;;;7.03;;
75620;SDS011;64574;48.506;-2.750;2023-09-12T06:07:33;11.38;;;6.65;;
75620;SDS011;64574;48.506;-2.750;2023-09-12T06:09:59;13.82;;;7.00;;
75620;SDS011;64574;48.506;-2.750;2023-09-12T06:12:25;13.77;;;6.93;;
75620;SDS011;64574;48.506;-2.750;2023-09-12T06:14:51;11.47;;;7.20;;
75620;SDS011;64574;48.506;-2.750;2023-09-12T06:17:18;11.10;;;6.65;;
75620;SDS011;64574;48.506;-2.750;2023-09-12T06:19:44;11.40;;;6.60;;
75620;SDS011;64574;48.506;-2.750;2023-09-12T06:22:09;9.00;;;6.30;;
75620;SDS011;64574;48.506;-2.750;2023-09-12T06:24:35;10.13;;;6.57;;
75620;SDS011;64574;48.506;-2.750;2023-09-12T06:27:00;11.23;;;7.00;;
75620;SDS011;64574;48.506;-2.750;2023-09-12T06:29:26;10.70;;;6.23;;
75620;SDS011;64574;48.506;-2.750;2023-09-12T06:31:51;10.83;;;6.07;;
75620;SDS011;64574;48.506;-2.750;2023-09-12T06:34:18;10.63;;;6.72;;
75620;SDS011;64574;48.506;-2.750;2023-09-12T06:36:43;9.35;;;6.22;;
75620;SDS011;64574;48.506;-2.750;2023-09-12T06:39:10;10.07;;;6.90;;
75620;SDS011;64574;48.506;-2.750;2023-09-12T06:41:35;10.60;;;6.60;;
75620;SDS011;64574;48.506;-2.750;2023-09-12T06:44:01;10.33;;;6.47;;
75620;SDS011;64574;48.506;-2.750;2023-09-12T06:46:29;12.52;;;7.30;;
75620;SDS011;64574;48.506;-2.750;2023-09-12T06:48:55;11.63;;;7.15;;
75620;SDS011;64574;48.506;-2.750;2023-09-12T06:51:24;12.48;;;7.38;;
75620;SDS011;64574;48.506;-2.750;2023-09-12T06:53:51;11.45;;;7.70;;
75620;SDS011;64574;48.506;-2.750;2023-09-12T06:56:16;11.90;;;7.70;;
75620;SDS011;64574;48.506;-2.750;2023-09-12T06:58:42;10.70;;;7.27;;
75620;SDS011;64574;48.506;-2.750;2023-09-12T07:01:08;11.82;;;7.28;;
75620;SDS011;64574;48.506;-2.750;2023-09-12T07:03:34;11.70;;;6.83;;
75620;SDS011;64574;48.506;-2.750;2023-09-12T07:06:01;12.45;;;7.57;;
75620;SDS011;64574;48.506;-2.750;2023-09-12T07:08:28;8.23;;;6.03;;
75620;SDS011;64574;48.506;-2.750;2023-09-12T07:10:58;9.65;;;6.80;;
75620;SDS011;64574;48.506;-2.750;2023-09-12T07:13:30;10.63;;;7.32;;
75620;SDS011;64574;48.506;-2.750;2023-09-12T07:15:56;11.20;;;7.72;;
75620;SDS011;64574;48.506;-2.750;2023-09-12T07:18:22;9.40;;;7.07;;
75620;SDS011;64574;48.506;-2.750;2023-09-12T07:20:56;10.27;;;6.30;;
75620;SDS011;64574;48.506;-2.750;2023-09-12T07:23:25;10.13;;;6.90;;
75620;SDS011;64574;48.506;-2.750;2023-09-12T07:25:51;10.30;;;6.23;;
75620;SDS011;64574;48.506;-2.750;2023-09-12T07:28:17;10.17;;;6.93;;
75620;SDS011;64574;48.506;-2.750;2023-09-12T07:30:47;9.57;;;6.93;;
75620;SDS011;64574;48.506;-2.750;2023-09-12T07:33:13;12.10;;;7.47;;
75620;SDS011;64574;48.506;-2.750;2023-09-12T07:35:39;10.18;;;7.10;;
75620;SDS011;64574;48.506;-2.750;2023-09-12T07:38:04;10.15;;;6.60;;
75620;SDS011;64574;48.506;-2.750;2023-09-12T07:40:30;12.10;;;7.15;;
75620;SDS011;64574;48.506;-2.750;2023-09-12T07:42:56;10.40;;;6.90;;
75620;SDS011;64574;48.506;-2.750;2023-09-12T07:45:21;11.50;;;7.60;;
75620;SDS011;64574;48.506;-2.750;2023-09-12T07:47:47;12.77;;;6.88;;
75620;SDS011;64574;48.506;-2.750;2023-09-12T07:50:13;10.85;;;6.63;;
75620;SDS011;64574;48.506;-2.750;2023-09-12T07:52:39;11.75;;;7.15;;
75620;SDS011;64574;48.506;-2.750;2023-09-12T07:55:07;11.40;;;7.03;;
75620;SDS011;64574;48.506;-2.750;2023-09-12T07:57:33;12.23;;;7.53;;
75620;SDS011;64574;48.506;-2.750;2023-09-12T07:59:59;11.53;;;6.90;;
75620;SDS011;64574;48.506;-2.750;2023-09-12T08:02:26;10.88;;;6.60;;
75620;SDS011;64574;48.506;-2.750;2023-09-12T08:04:51;11.05;;;6.45;;
75620;SDS011;64574;48.506;-2.750;2023-09-12T08:07:18;10.30;;;7.15;;
75620;SDS011;64574;48.506;-2.750;2023-09-12T08:09:49;12.20;;;6.93;;
75620;SDS011;64574;48.506;-2.750;2023-09-12T08:12:15;9.85;;;6.63;;
75620;SDS011;64574;48.506;-2.750;2023-09-12T08:14:42;10.07;;;6.28;;
75620;SDS011;64574;48.506;-2.750;2023-09-12T08:17:08;12.20;;;7.00;;
75620;SDS011;64574;48.506;-2.750;2023-09-12T08:19:34;10.30;;;6.57;;
75620;SDS011;64574;48.506;-2.750;2023-09-12T08:22:00;10.60;;;6.18;;
75620;SDS011;64574;48.506;-2.750;2023-09-12T08:24:25;9.27;;;5.70;;
75620;SDS011;64574;48.506;-2.750;2023-09-12T08:26:51;9.20;;;4.60;;
75620;SDS011;64574;48.506;-2.750;2023-09-12T08:29:16;7.68;;;3.67;;
75620;SDS011;64574;48.506;-2.750;2023-09-12T08:31:42;6.22;;;3.47;;
75620;SDS011;64574;48.506;-2.750;2023-09-12T08:34:09;7.18;;;3.38;;
75620;SDS011;64574;48.506;-2.750;2023-09-12T08:36:35;5.13;;;2.97;;
75620;SDS011;64574;48.506;-2.750;2023-09-12T08:39:01;5.45;;;2.40;;
75620;SDS011;64574;48.506;-2.750;2023-09-12T12:40:49;7.55;;;2.35;;
75620;SDS011;64574;48.506;-2.750;2023-09-12T12:43:17;4.22;;;2.05;;
75620;SDS011;64574;48.506;-2.750;2023-09-12T12:45:53;4.22;;;1.63;;
75620;SDS011;64574;48.506;-2.750;2023-09-12T12:48:30;5.15;;;2.10;;
75620;SDS011;64574;48.506;-2.750;2023-09-12T12:50:57;3.05;;;1.90;;
75620;SDS011;64574;48.506;-2.750;2023-09-12T12:56:05;4.35;;;1.85;;
75620;SDS011;64574;48.506;-2.750;2023-09-12T12:58:30;6.47;;;1.80;;
75620;SDS011;64574;48.506;-2.750;2023-09-12T13:00:56;4.25;;;2.13;;
75620;SDS011;64574;48.506;-2.750;2023-09-12T13:03:22;4.35;;;1.90;;
75620;SDS011;64574;48.506;-2.750;2023-09-12T13:05:48;5.82;;;1.58;;
75620;SDS011;64574;48.506;-2.750;2023-09-12T13:08:13;5.43;;;1.77;;
75620;SDS011;64574;48.506;-2.750;2023-09-12T13:10:39;3.60;;;1.67;;
75620;SDS011;64574;48.506;-2.750;2023-09-12T13:13:07;5.53;;;1.45;;
75620;SDS011;64574;48.506;-2.750;2023-09-12T13:15:33;5.32;;;1.48;;
75620;SDS011;64574;48.506;-2.750;2023-09-12T13:17:58;2.35;;;1.35;;
75620;SDS011;64574;48.506;-2.750;2023-09-12T13:20:24;3.65;;;1.52;;
75620;SDS011;64574;48.506;-2.750;2023-09-12T13:22:50;6.15;;;1.67;;
75620;SDS011;64574;48.506;-2.750;2023-09-12T13:25:16;7.93;;;1.50;;
75620;SDS011;64574;48.506;-2.750;2023-09-12T13:27:41;4.25;;;1.20;;
75620;SDS011;64574;48.506;-2.750;2023-09-12T13:30:07;4.13;;;1.40;;
75620;SDS011;64574;48.506;-2.750;2023-09-12T13:32:33;2.63;;;1.00;;
75620;SDS011;64574;48.506;-2.750;2023-09-12T13:34:58;4.38;;;1.33;;
75620;SDS011;64574;48.506;-2.750;2023-09-12T13:37:24;3.47;;;1.25;;
75620;SDS011;64574;48.506;-2.750;2023-09-12T13:39:52;4.25;;;1.30;;
75620;SDS011;64574;48.506;-2.750;2023-09-12T13:42:18;4.55;;;1.23;;
75620;SDS011;64574;48.506;-2.750;2023-09-12T13:44:44;4.10;;;1.38;;
75620;SDS011;64574;48.506;-2.750;2023-09-12T13:47:11;2.95;;;1.40;;
75620;SDS011;64574;48.506;-2.750;2023-09-12T13:49:37;5.03;;;1.30;;
75620;SDS011;64574;48.506;-2.750;2023-09-12T13:52:03;5.53;;;1.48;;
75620;SDS011;64574;48.506;-2.750;2023-09-12T13:54:29;3.40;;;1.35;;
75620;SDS011;64574;48.506;-2.750;2023-09-12T13:56:55;3.33;;;1.00;;
75620;SDS011;64574;48.506;-2.750;2023-09-12T13:59:21;4.85;;;1.20;;
75620;SDS011;64574;48.506;-2.750;2023-09-12T14:01:47;2.70;;;1.13;;
75620;SDS011;64574;48.506;-2.750;2023-09-12T14:04:12;5.70;;;1.60;;
75620;SDS011;64574;48.506;-2.750;2023-09-12T14:06:38;3.42;;;1.17;;
75620;SDS011;64574;48.506;-2.750;2023-09-12T14:09:04;5.07;;;1.20;;
75620;SDS011;64574;48.506;-2.750;2023-09-12T14:11:30;6.45;;;1.40;;
75620;SDS011;64574;48.506;-2.750;2023-09-12T14:13:56;3.40;;;1.15;;
75620;SDS011;64574;48.506;-2.750;2023-09-12T14:16:21;3.67;;;1.10;;
75620;SDS011;64574;48.506;-2.750;2023-09-12T14:18:47;5.60;;;1.15;;
75620;SDS011;64574;48.506;-2.750;2023-09-12T14:21:13;3.03;;;1.20;;
75620;SDS011;64574;48.506;-2.750;2023-09-12T14:23:38;3.45;;;1.17;;
75620;SDS011;64574;48.506;-2.750;2023-09-12T14:26:04;4.00;;;1.00;;
75620;SDS011;64574;48.506;-2.750;2023-09-12T14:28:30;3.63;;;0.90;;
75620;SDS011;64574;48.506;-2.750;2023-09-12T14:30:57;3.00;;;1.17;;
75620;SDS011;64574;48.506;-2.750;2023-09-12T14:33:23;3.85;;;1.27;;
75620;SDS011;64574;48.506;-2.750;2023-09-12T14:35:48;4.10;;;1.05;;
75620;SDS011;64574;48.506;-2.750;2023-09-12T14:38:14;2.63;;;0.73;;
75620;SDS011;64574;48.506;-2.750;2023-09-12T14:40:40;5.72;;;1.20;;
75620;SDS011;64574;48.506;-2.750;2023-09-12T14:43:05;3.90;;;1.10;;
75620;SDS011;64574;48.506;-2.750;2023-09-12T14:45:32;6.38;;;1.10;;
75620;SDS011;64574;48.506;-2.750;2023-09-12T14:47:58;3.88;;;1.00;;
75620;SDS011;64574;48.506;-2.750;2023-09-12T14:50:24;5.63;;;1.00;;
75620;SDS011;64574;48.506;-2.750;2023-09-12T14:52:54;2.42;;;0.80;;
75620;SDS011;64574;48.506;-2.750;2023-09-12T14:55:20;3.13;;;1.15;;
75620;SDS011;64574;48.506;-2.750;2023-09-12T14:57:45;1.90;;;0.70;;
75620;SDS011;64574;48.506;-2.750;2023-09-12T15:00:11;4.10;;;0.98;;
75620;SDS011;64574;48.506;-2.750;2023-09-12T15:02:37;2.63;;;0.77;;
75620;SDS011;64574;48.506;-2.750;2023-09-12T15:05:03;3.10;;;0.90;;
75620;SDS011;64574;48.506;-2.750;2023-09-12T15:07:29;2.85;;;0.80;;
75620;SDS011;64574;48.506;-2.750;2023-09-12T15:09:55;3.65;;;0.73;;
75620;SDS011;64574;48.506;-2.750;2023-09-12T15:12:21;2.40;;;0.85;;
75620;SDS011;64574;48.506;-2.750;2023-09-12T15:14:47;2.10;;;0.70;;
75620;SDS011;64574;48.506;-2.750;2023-09-12T16:08:22;4.22;;;0.85;;
75620;SDS011;64574;48.506;-2.750;2023-09-12T16:10:48;2.75;;;0.80;;
75620;SDS011;64574;48.506;-2.750;2023-09-12T16:13:15;5.25;;;1.33;;
75620;SDS011;64574;48.506;-2.750;2023-09-12T16:15:40;4.72;;;1.15;;
75620;SDS011;64574;48.506;-2.750;2023-09-12T16:18:06;3.45;;;0.90;;
75620;SDS011;64574;48.506;-2.750;2023-09-12T16:20:32;3.05;;;1.05;;
75620;SDS011;64574;48.506;-2.750;2023-09-12T16:22:58;3.63;;;1.20;;
75620;SDS011;64574;48.506;-2.750;2023-09-12T16:25:24;5.35;;;1.20;;
75620;SDS011;64574;48.506;-2.750;2023-09-12T16:27:50;3.72;;;0.90;;
75620;SDS011;64574;48.506;-2.750;2023-09-12T16:30:16;2.92;;;0.88;;
75620;SDS011;64574;48.506;-2.750;2023-09-12T16:32:42;3.25;;;1.13;;
75620;SDS011;64574;48.506;-2.750;2023-09-12T16:35:08;4.88;;;1.23;;
75620;SDS011;64574;48.506;-2.750;2023-09-12T16:37:34;4.68;;;1.10;;
75620;SDS011;64574;48.506;-2.750;2023-09-12T16:40:00;4.38;;;1.20;;
75620;SDS011;64574;48.506;-2.750;2023-09-12T16:42:29;5.18;;;1.30;;
75620;SDS011;64574;48.506;-2.750;2023-09-12T16:44:58;4.88;;;0.95;;
75620;SDS011;64574;48.506;-2.750;2023-09-12T16:47:29;3.30;;;1.17;;
75620;SDS011;64574;48.506;-2.750;2023-09-12T16:49:57;4.03;;;1.00;;
75620;SDS011;64574;48.506;-2.750;2023-09-12T16:52:23;4.60;;;1.30;;
75620;SDS011;64574;48.506;-2.750;2023-09-12T16:54:49;5.75;;;1.10;;
75620;SDS011;64574;48.506;-2.750;2023-09-12T16:57:15;3.25;;;0.93;;
75620;SDS011;64574;48.506;-2.750;2023-09-12T16:59:41;3.53;;;0.90;;
75620;SDS011;64574;48.506;-2.750;2023-09-12T17:02:08;3.85;;;0.98;;
75620;SDS011;64574;48.506;-2.750;2023-09-12T17:04:36;2.92;;;0.90;;
75620;SDS011;64574;48.506;-2.750;2023-09-12T17:07:07;5.05;;;0.80;;
75620;SDS011;64574;48.506;-2.750;2023-09-12T17:09:34;3.63;;;1.05;;
75620;SDS011;64574;48.506;-2.750;2023-09-12T17:11:59;3.13;;;1.13;;
75620;SDS011;64574;48.506;-2.750;2023-09-12T17:14:25;5.32;;;1.30;;
75620;SDS011;64574;48.506;-2.750;2023-09-12T17:16:51;3.15;;;1.00;;
75620;SDS011;64574;48.506;-2.750;2023-09-12T17:19:17;4.32;;;1.15;;
75620;SDS011;64574;48.506;-2.750;2023-09-12T17:21:43;5.25;;;1.20;;
75620;SDS011;64574;48.506;-2.750;2023-09-12T17:24:08;3.95;;;1.10;;
75620;SDS011;64574;48.506;-2.750;2023-09-12T17:26:36;3.90;;;1.00;;
75620;SDS011;64574;48.506;-2.750;2023-09-12T17:29:02;3.60;;;0.90;;
75620;SDS011;64574;48.506;-2.750;2023-09-12T17:46:04;1.98;;;0.90;;
75620;SDS011;64574;48.506;-2.750;2023-09-12T17:48:30;4.18;;;1.00;;
75620;SDS011;64574;48.506;-2.750;2023-09-12T17:50:55;3.13;;;0.98;;
75620;SDS011;64574;48.506;-2.750;2023-09-12T17:53:21;3.33;;;1.00;;
75620;SDS011;64574;48.506;-2.750;2023-09-12T17:55:49;5.32;;;1.33;;
75620;SDS011;64574;48.506;-2.750;2023-09-12T17:58:17;4.72;;;1.40;;
75620;SDS011;64574;48.506;-2.750;2023-09-12T18:00:43;3.55;;;1.40;;
75620;SDS011;64574;48.506;-2.750;2023-09-12T18:05:45;3.95;;;1.23;;
75620;SDS011;64574;48.506;-2.750;2023-09-12T18:08:11;4.38;;;1.20;;
75620;SDS011;64574;48.506;-2.750;2023-09-12T18:10:37;7.25;;;1.20;;
75620;SDS011;64574;48.506;-2.750;2023-09-12T18:13:02;2.85;;;0.88;;
75620;SDS011;64574;48.506;-2.750;2023-09-12T18:15:28;5.95;;;1.20;;
75620;SDS011;64574;48.506;-2.750;2023-09-12T18:17:54;4.10;;;1.02;;
75620;SDS011;64574;48.506;-2.750;2023-09-12T18:20:19;5.78;;;1.48;;
75620;SDS011;64574;48.506;-2.750;2023-09-12T18:22:45;2.75;;;0.98;;
75620;SDS011;64574;48.506;-2.750;2023-09-12T18:25:11;2.72;;;1.02;;
75620;SDS011;64574;48.506;-2.750;2023-09-12T18:37:19;3.40;;;1.00;;
75620;SDS011;64574;48.506;-2.750;2023-09-12T18:39:45;3.13;;;1.30;;
75620;SDS011;64574;48.506;-2.750;2023-09-12T18:42:11;2.78;;;0.95;;
75620;SDS011;64574;48.506;-2.750;2023-09-12T18:44:37;2.95;;;0.98;;
75620;SDS011;64574;48.506;-2.750;2023-09-12T18:47:02;3.83;;;1.02;;
75620;SDS011;64574;48.506;-2.750;2023-09-12T18:49:28;2.85;;;1.10;;
75620;SDS011;64574;48.506;-2.750;2023-09-12T18:51:54;5.32;;;1.17;;
75620;SDS011;64574;48.506;-2.750;2023-09-12T18:54:20;2.80;;;1.00;;
75620;SDS011;64574;48.506;-2.750;2023-09-12T18:56:50;2.15;;;1.00;;
75620;SDS011;64574;48.506;-2.750;2023-09-12T18:59:16;6.03;;;1.15;;
75620;SDS011;64574;48.506;-2.750;2023-09-12T19:01:42;3.90;;;1.00;;
75620;SDS011;64574;48.506;-2.750;2023-09-12T19:04:21;3.83;;;1.40;;
75620;SDS011;64574;48.506;-2.750;2023-09-12T19:06:51;4.70;;;1.50;;
75620;SDS011;64574;48.506;-2.750;2023-09-12T19:09:18;5.20;;;1.10;;
75620;SDS011;64574;48.506;-2.750;2023-09-12T19:11:44;7.32;;;1.13;;
75620;SDS011;64574;48.506;-2.750;2023-09-12T19:19:02;3.10;;;1.10;;
75620;SDS011;64574;48.506;-2.750;2023-09-12T19:23:56;5.05;;;1.30;;
75620;SDS011;64574;48.506;-2.750;2023-09-12T19:26:21;3.50;;;1.08;;
75620;SDS011;64574;48.506;-2.750;2023-09-12T19:28:48;3.42;;;0.80;;
75620;SDS011;64574;48.506;-2.750;2023-09-12T19:31:13;5.25;;;1.20;;
75620;SDS011;64574;48.506;-2.750;2023-09-12T19:33:39;2.45;;;1.00;;
75620;SDS011;64574;48.506;-2.750;2023-09-12T19:36:05;4.38;;;1.00;;
75620;SDS011;64574;48.506;-2.750;2023-09-12T19:38:31;4.28;;;1.45;;
75620;SDS011;64574;48.506;-2.750;2023-09-12T19:40:57;2.03;;;0.80;;
75620;SDS011;64574;48.506;-2.750;2023-09-12T19:43:23;3.35;;;1.08;;
75620;SDS011;64574;48.506;-2.750;2023-09-12T19:45:49;4.72;;;1.00;;
75620;SDS011;64574;48.506;-2.750;2023-09-12T19:48:15;4.93;;;1.40;;
75620;SDS011;64574;48.506;-2.750;2023-09-12T19:50:45;3.10;;;1.00;;
75620;SDS011;64574;48.506;-2.750;2023-09-12T19:53:12;3.83;;;1.13;;
75620;SDS011;64574;48.506;-2.750;2023-09-12T19:55:48;3.55;;;1.15;;
75620;SDS011;64574;48.506;-2.750;2023-09-12T19:58:18;7.13;;;1.50;;
75620;SDS011;64574;48.506;-2.750;2023-09-12T20:00:44;2.92;;;1.00;;
75620;SDS011;64574;48.506;-2.750;2023-09-12T20:03:11;3.42;;;1.00;;
75620;SDS011;64574;48.506;-2.750;2023-09-12T20:10:36;4.20;;;1.05;;
75620;SDS011;64574;48.506;-2.750;2023-09-12T20:13:02;5.43;;;1.02;;
75620;SDS011;64574;48.506;-2.750;2023-09-12T20:15:28;4.03;;;1.00;;
75620;SDS011;64574;48.506;-2.750;2023-09-12T20:18:10;3.22;;;1.20;;
75620;SDS011;64574;48.506;-2.750;2023-09-12T20:23:02;2.47;;;0.95;;
75620;SDS011;64574;48.506;-2.750;2023-09-12T20:25:29;4.63;;;1.15;;
75620;SDS011;64574;48.506;-2.750;2023-09-12T20:27:54;8.25;;;1.20;;